Terminal Aerodrome Forecast
Issued by NWS

Home | Current Version | Previous Version | Text Only | Print | Product List | Glossary On
Versions: 1 2 3 4 5 6 7 8 9 10 11 12 13 14 15 16 17 18 19 20 21 22 23 24 25 26 27 28 29 30 31 32
000
FTUS43 KGLD 251100
TAFMCK
TAF
KMCK 251121Z 2512/2612 30008KT P6SM BKN150
     FM251500 35014G23KT P6SM SCT150
     FM252000 03009KT P6SM SCT200
     FM260100 VRB05KT P6SM BKN250=

USA.gov is the U.S. government's official web portal to all federal, state and local government web resources and services.